createdAt,value
2022-11-20T00:01:34.507Z,27.17
2022-11-20T00:04:01.823Z,32.50
2022-11-20T00:06:29.504Z,23.98
2022-11-20T00:08:57.762Z,21.80
2022-11-20T00:11:26.062Z,26.83
2022-11-20T00:13:54.412Z,23.05
2022-11-20T00:16:22.824Z,24.60
2022-11-20T00:18:50.136Z,23.10
2022-11-20T00:21:18.854Z,24.95
2022-11-20T00:23:46.265Z,19.65
2022-11-20T00:26:17.798Z,11.68
2022-11-20T00:28:45.630Z,24.98
2022-11-20T00:31:14.151Z,21.85
2022-11-20T00:33:41.716Z,22.15
2022-11-20T00:36:10.561Z,23.35
2022-11-20T00:38:38.138Z,23.02
2022-11-20T00:41:10.346Z,24.60
2022-11-20T00:43:38.067Z,19.90
2022-11-20T00:46:09.429Z,24.55
2022-11-20T00:48:36.910Z,23.70
2022-11-20T00:51:04.237Z,16.92
2022-11-20T00:53:31.403Z,22.10
2022-11-20T00:56:06.031Z,21.17
2022-11-20T00:58:34.242Z,12.07
2022-11-20T01:01:05.751Z,22.33
2022-11-20T01:03:33.823Z,20.92
2022-11-20T01:06:02.375Z,22.35
2022-11-20T01:08:33.240Z,24.52
2022-11-20T01:11:01.741Z,19.20
2022-11-20T01:13:37.920Z,15.98
2022-11-20T01:16:12.678Z,20.15
2022-11-20T01:18:40.924Z,19.73
2022-11-20T01:21:14.741Z,19.20
2022-11-20T01:23:43.263Z,23.02
2022-11-20T01:26:12.490Z,23.15
2022-11-20T01:28:41.831Z,22.00
2022-11-20T01:31:28.816Z,25.02
2022-11-20T01:33:58.314Z,24.83
2022-11-20T01:36:27.149Z,22.67
2022-11-20T01:38:58.293Z,23.77
2022-11-20T01:41:48.333Z,23.85
2022-11-20T01:44:16.377Z,26.38
2022-11-20T01:46:54.619Z,22.65
2022-11-20T01:49:23.921Z,22.60
2022-11-20T01:52:06.433Z,20.55
2022-11-20T01:54:37.430Z,22.08
2022-11-20T01:59:31.773Z,19.83
2022-11-20T02:01:58.990Z,22.48
2022-11-20T02:04:26.486Z,13.52
2022-11-20T02:07:02.917Z,7.72
2022-11-20T02:09:30.722Z,14.85
2022-11-20T02:11:58.313Z,18.92
2022-11-20T02:14:26.021Z,21.75
2022-11-20T02:16:53.433Z,21.98
2022-11-20T02:19:31.539Z,21.55
2022-11-20T02:22:01.582Z,18.95
2022-11-20T02:24:28.752Z,28.30
2022-11-20T02:26:58.607Z,20.45
2022-11-20T02:29:28.328Z,19.15
2022-11-20T02:31:56.698Z,24.08
2022-11-20T02:34:23.796Z,24.27
2022-11-20T02:36:52.673Z,23.55
2022-11-20T02:39:21.106Z,24.35
2022-11-20T02:41:48.605Z,19.88
2022-11-20T02:44:16.126Z,21.00
2022-11-20T02:46:43.258Z,24.52
2022-11-20T02:49:10.595Z,22.30
2022-11-20T02:51:37.767Z,20.10
2022-11-20T02:54:05.191Z,23.15
2022-11-20T02:56:32.406Z,16.60
2022-11-20T02:58:59.528Z,24.80
2022-11-20T03:01:26.848Z,22.75
2022-11-20T03:03:55.491Z,25.23
2022-11-20T03:06:22.577Z,19.95
2022-11-20T03:08:49.644Z,22.90
2022-11-20T03:11:16.916Z,23.10
2022-11-20T03:13:46.731Z,18.05
2022-11-20T03:16:15.422Z,17.70
2022-11-20T03:18:43.211Z,20.85
2022-11-20T03:21:10.956Z,15.32
2022-11-20T03:23:38.326Z,24.23
2022-11-20T03:26:09.357Z,23.38
2022-11-20T03:31:07.737Z,20.48
2022-11-20T03:33:34.943Z,25.52
2022-11-20T03:36:10.052Z,26.92
2022-11-20T03:38:37.366Z,22.35
2022-11-20T03:41:05.482Z,21.13
2022-11-20T03:43:32.949Z,23.48
2022-11-20T03:46:01.561Z,19.70
2022-11-20T03:48:29.137Z,25.70
2022-11-20T03:51:09.602Z,21.10
2022-11-20T03:53:37.081Z,23.05
2022-11-20T03:56:04.442Z,20.60
2022-11-20T03:58:31.702Z,18.92
2022-11-20T04:00:59.130Z,18.30
2022-11-20T04:03:27.010Z,21.90
2022-11-20T04:05:54.074Z,18.45
2022-11-20T04:08:21.137Z,20.20
2022-11-20T04:10:48.513Z,16.23
2022-11-20T04:13:15.561Z,20.17
2022-11-20T04:15:42.605Z,19.30
2022-11-20T04:18:09.733Z,20.67
2022-11-20T04:20:37.030Z,18.55
2022-11-20T04:23:04.077Z,13.88
2022-11-20T04:25:31.118Z,17.00
2022-11-20T04:27:58.237Z,15.13
2022-11-20T04:30:25.314Z,16.77
2022-11-20T04:32:53.710Z,19.52
2022-11-20T04:35:20.835Z,19.15
2022-11-20T04:37:47.925Z,21.75
2022-11-20T04:40:15.076Z,14.93
2022-11-20T04:42:42.213Z,20.52
2022-11-20T04:45:09.617Z,19.25
2022-11-20T04:47:36.717Z,16.23
2022-11-20T04:50:04.195Z,15.98
2022-11-20T04:52:31.526Z,17.35
2022-11-20T04:55:01.853Z,25.42
2022-11-20T04:57:29.023Z,21.02
2022-11-20T04:59:56.467Z,20.20
2022-11-20T05:02:24.725Z,16.17
2022-11-20T05:04:54.922Z,18.98
2022-11-20T05:07:22.042Z,19.17
2022-11-20T05:09:49.118Z,18.33
2022-11-20T05:12:16.178Z,14.30
2022-11-20T05:14:43.269Z,18.83
2022-11-20T05:17:13.562Z,11.40
2022-11-20T05:19:40.619Z,16.80
2022-11-20T05:22:07.758Z,17.30
2022-11-20T05:24:34.910Z,16.48
2022-11-20T05:27:02.006Z,15.98
2022-11-20T05:29:29.054Z,20.85
2022-11-20T05:31:56.231Z,18.15
2022-11-20T05:34:23.347Z,16.02
2022-11-20T05:36:50.758Z,13.10
2022-11-20T05:39:17.815Z,15.10
2022-11-20T05:41:44.866Z,17.45
2022-11-20T05:44:12.353Z,20.20
2022-11-20T05:46:39.487Z,17.80
2022-11-20T05:49:06.597Z,17.50
2022-11-20T05:51:33.694Z,17.92
2022-11-20T05:54:00.793Z,12.13
2022-11-20T05:56:27.927Z,16.17
2022-11-20T05:58:55.108Z,19.65
2022-11-20T06:01:23.569Z,14.60
2022-11-20T06:03:51.482Z,12.40
2022-11-20T06:06:19.295Z,16.58
2022-11-20T06:08:46.665Z,18.88
2022-11-20T06:11:14.360Z,13.73
2022-11-20T06:13:42.578Z,17.13
2022-11-20T06:16:10.453Z,13.05
2022-11-20T06:18:37.842Z,15.40
2022-11-20T06:21:06.406Z,17.58
2022-11-20T06:23:34.161Z,18.67
2022-11-20T06:26:08.586Z,15.95
2022-11-20T06:28:36.157Z,17.17
2022-11-20T06:31:03.497Z,19.33
2022-11-20T06:33:30.962Z,18.40
2022-11-20T06:36:01.655Z,10.40
2022-11-20T06:38:30.868Z,16.63
2022-11-20T06:40:58.071Z,16.27
2022-11-20T06:43:25.473Z,13.98
2022-11-20T06:45:56.160Z,15.95
2022-11-20T06:48:24.148Z,15.18
2022-11-20T06:50:53.634Z,18.73
2022-11-20T06:53:20.808Z,18.00
2022-11-20T06:55:48.636Z,16.17
2022-11-20T06:58:16.203Z,18.45
2022-11-20T07:00:43.384Z,14.30
2022-11-20T07:03:11.378Z,17.35
2022-11-20T07:05:39.394Z,15.65
2022-11-20T07:08:06.573Z,20.35
2022-11-20T07:10:33.948Z,17.60
2022-11-20T07:13:01.074Z,23.60
2022-11-20T07:15:28.234Z,12.75
2022-11-20T07:17:55.378Z,17.45
2022-11-20T07:20:22.440Z,8.70
2022-11-20T07:22:54.998Z,15.95
2022-11-20T07:25:22.062Z,17.30
2022-11-20T07:27:49.332Z,18.33
2022-11-20T07:30:19.649Z,19.40
2022-11-20T07:32:52.710Z,15.10
2022-11-20T07:35:20.053Z,14.85
2022-11-20T07:37:48.133Z,16.30
2022-11-20T07:40:15.320Z,17.77
2022-11-20T07:42:52.510Z,17.15
2022-11-20T07:45:20.353Z,15.07
2022-11-20T07:47:47.517Z,14.05
2022-11-20T07:50:14.818Z,18.42
2022-11-20T07:52:42.027Z,18.42
2022-11-20T07:55:10.361Z,28.80
2022-11-20T07:57:37.460Z,48.58
2022-11-20T08:00:05.688Z,58.55
2022-11-20T08:02:40.254Z,33.60
2022-11-20T08:05:07.525Z,24.52
2022-11-20T08:07:41.678Z,16.90
2022-11-20T08:10:10.490Z,20.67
2022-11-20T08:12:56.268Z,23.27
2022-11-20T08:15:23.477Z,21.33
2022-11-20T08:18:15.535Z,22.33
2022-11-20T08:20:37.470Z,21.05
2022-11-20T08:23:08.874Z,22.00
2022-11-20T08:25:36.886Z,23.42
2022-11-20T08:28:15.716Z,23.73
2022-11-20T08:30:47.245Z,21.48
2022-11-20T08:33:14.367Z,20.15
2022-11-20T08:35:42.531Z,21.95
2022-11-20T08:38:10.377Z,31.70
2022-11-20T08:40:37.526Z,25.98
2022-11-20T08:43:05.234Z,25.05
2022-11-20T08:45:34.703Z,25.50
2022-11-20T08:48:02.933Z,22.20
2022-11-20T08:50:34.509Z,29.77
2022-11-20T08:53:07.565Z,21.20
2022-11-20T08:55:36.782Z,20.90
2022-11-20T08:58:07.708Z,20.83
2022-11-20T09:00:35.456Z,20.42
2022-11-20T09:03:05.405Z,23.77
2022-11-20T09:05:32.530Z,20.85
2022-11-20T09:07:59.982Z,21.20
2022-11-20T09:10:29.639Z,23.45
2022-11-20T09:12:56.861Z,28.15
2022-11-20T09:15:25.101Z,24.88
2022-11-20T09:18:12.120Z,24.17
2022-11-20T09:20:39.463Z,26.30
2022-11-20T09:23:06.736Z,24.10
2022-11-20T09:25:33.849Z,21.23
2022-11-20T09:28:00.965Z,23.10
2022-11-20T09:30:28.452Z,23.58
2022-11-20T09:32:55.588Z,16.50
2022-11-20T09:35:22.927Z,21.48
2022-11-20T09:37:50.034Z,22.75
2022-11-20T09:40:30.562Z,22.05
2022-11-20T09:43:13.121Z,22.08
2022-11-20T09:45:54.127Z,24.55
2022-11-20T09:48:40.033Z,20.08
2022-11-20T09:51:19.161Z,20.58
2022-11-20T09:53:46.482Z,23.50
2022-11-20T09:56:18.237Z,22.65
2022-11-20T09:58:56.680Z,25.83
2022-11-20T10:01:27.848Z,29.08
2022-11-20T10:04:14.552Z,21.73
2022-11-20T10:06:46.061Z,25.63
2022-11-20T10:09:14.597Z,22.98
2022-11-20T10:12:02.747Z,21.15
2022-11-20T10:14:35.191Z,25.50
2022-11-20T10:17:15.280Z,24.38
2022-11-20T10:19:45.486Z,28.20
2022-11-20T10:22:15.628Z,28.33
2022-11-20T10:24:49.836Z,23.92
2022-11-20T10:27:22.962Z,23.80
2022-11-20T10:30:01.997Z,25.05
2022-11-20T10:32:34.218Z,22.60
2022-11-20T10:35:20.285Z,26.58
2022-11-20T10:37:49.233Z,25.30
2022-11-20T10:40:30.846Z,26.98
2022-11-20T10:43:00.572Z,29.77
2022-11-20T10:45:30.818Z,25.40
2022-11-20T10:48:16.714Z,23.33
2022-11-20T10:51:10.244Z,31.08
2022-11-20T10:53:56.723Z,29.27
2022-11-20T10:56:32.221Z,28.05
2022-11-20T10:59:02.478Z,28.02
2022-11-20T11:01:29.612Z,32.08
2022-11-20T11:03:57.406Z,32.05
2022-11-20T11:06:38.881Z,31.42
2022-11-20T11:09:12.081Z,33.20
2022-11-20T11:11:39.811Z,30.75
2022-11-20T11:14:11.192Z,32.97
2022-11-20T11:16:50.570Z,33.97
2022-11-20T11:19:18.594Z,29.45
2022-11-20T11:21:54.940Z,29.75
2022-11-20T11:27:16.960Z,31.67
2022-11-20T11:29:44.618Z,30.30
2022-11-20T11:32:16.125Z,28.65
2022-11-20T11:34:43.328Z,28.85
2022-11-20T11:37:22.467Z,30.40
2022-11-20T11:40:03.869Z,32.65
2022-11-20T11:42:41.844Z,32.47
2022-11-20T11:45:09.674Z,36.67
2022-11-20T11:47:47.989Z,31.88
2022-11-20T11:50:16.149Z,30.45
2022-11-20T11:52:58.645Z,34.28
2022-11-20T11:55:31.713Z,36.80
2022-11-20T11:58:06.044Z,36.35
2022-11-20T12:00:33.765Z,30.60
2022-11-20T12:03:11.769Z,33.10
2022-11-20T12:05:42.987Z,29.52
2022-11-20T12:08:23.115Z,35.45
2022-11-20T12:10:53.783Z,30.90
2022-11-20T12:13:29.833Z,37.22
2022-11-20T12:15:56.958Z,35.95
2022-11-20T12:18:24.644Z,39.00
2022-11-20T12:21:27.881Z,30.63
2022-11-20T12:24:13.937Z,37.78
2022-11-20T12:26:59.898Z,40.17
2022-11-20T12:29:26.702Z,38.88
2022-11-20T12:32:02.989Z,37.45
2022-11-20T12:34:42.477Z,44.20
2022-11-20T12:37:25.351Z,39.28
2022-11-20T12:39:59.692Z,47.60
2022-11-20T12:42:48.418Z,49.72
2022-11-20T12:45:27.639Z,45.25
2022-11-20T12:48:07.809Z,42.88
2022-11-20T12:51:08.457Z,40.97
2022-11-20T12:53:58.281Z,40.80
2022-11-20T12:56:28.526Z,34.40
2022-11-20T12:59:10.371Z,31.33
2022-11-20T13:01:49.329Z,26.70
2022-11-20T13:04:35.019Z,36.75
2022-11-20T13:07:06.448Z,34.80
2022-11-20T13:09:34.600Z,32.20
2022-11-20T13:12:08.173Z,35.53
2022-11-20T13:14:42.880Z,41.72
2022-11-20T13:17:26.186Z,28.92
2022-11-20T13:19:59.598Z,38.78
2022-11-20T13:22:30.767Z,29.42
2022-11-20T13:24:57.915Z,27.98
2022-11-20T13:27:25.499Z,25.50
2022-11-20T13:30:15.841Z,36.78
2022-11-20T13:33:09.062Z,34.97
2022-11-20T13:35:37.797Z,35.58
2022-11-20T13:38:04.919Z,33.78
2022-11-20T13:40:32.098Z,32.08
2022-11-20T13:43:17.990Z,34.88
2022-11-20T13:45:58.438Z,29.40
2022-11-20T13:48:27.413Z,31.38
2022-11-20T13:50:54.453Z,41.67
2022-11-20T13:53:30.413Z,44.38
2022-11-20T13:56:00.787Z,30.10
2022-11-20T13:58:42.101Z,39.17
2022-11-20T14:01:11.047Z,37.17
2022-11-20T14:04:04.638Z,27.95
2022-11-20T14:06:29.778Z,39.10
2022-11-20T14:08:57.537Z,35.67
2022-11-20T14:11:31.610Z,35.75
2022-11-20T14:14:25.217Z,36.60
2022-11-20T14:16:53.038Z,28.48
2022-11-20T14:19:23.673Z,36.00
2022-11-20T14:21:51.952Z,33.90
2022-11-20T14:24:23.702Z,33.70
2022-11-20T14:26:52.103Z,36.55
2022-11-20T14:29:19.261Z,36.42
2022-11-20T14:31:52.702Z,40.92
2022-11-20T14:34:23.767Z,33.83
2022-11-20T14:36:53.956Z,27.95
2022-11-20T14:39:22.262Z,31.45
2022-11-20T14:41:53.148Z,37.30
2022-11-20T14:44:23.032Z,37.75
2022-11-20T14:46:50.361Z,40.92
2022-11-20T14:49:17.740Z,34.70
2022-11-20T14:51:46.186Z,46.25
2022-11-20T14:54:18.277Z,34.17
2022-11-20T14:57:01.990Z,44.40
2022-11-20T14:59:34.614Z,34.95
2022-11-20T15:02:06.985Z,44.85
2022-11-20T15:04:34.319Z,44.10
2022-11-20T15:07:01.825Z,41.33
2022-11-20T15:09:35.888Z,46.22
2022-11-20T15:12:28.209Z,38.55
2022-11-20T15:14:58.335Z,42.47
2022-11-20T15:17:25.766Z,78.47
2022-11-20T15:19:53.708Z,45.40
2022-11-20T15:22:20.980Z,50.85
2022-11-20T15:24:48.138Z,29.45
2022-11-20T15:27:15.368Z,29.80
2022-11-20T15:29:47.083Z,33.30
2022-11-20T15:32:14.361Z,36.50
2022-11-20T15:34:41.548Z,53.38
2022-11-20T15:37:08.732Z,47.80
2022-11-20T15:39:36.145Z,36.55
2022-11-20T15:42:03.534Z,53.88
2022-11-20T15:44:30.684Z,35.53
2022-11-20T15:46:58.340Z,38.05
2022-11-20T15:49:27.483Z,38.60
2022-11-20T15:51:55.070Z,40.28
2022-11-20T15:54:23.557Z,57.22
2022-11-20T15:56:53.384Z,43.72
2022-11-20T15:59:23.479Z,22.25
2022-11-20T16:01:51.641Z,39.88
2022-11-20T16:04:19.495Z,45.20
2022-11-20T16:06:46.803Z,43.65
2022-11-20T16:09:16.955Z,75.78
2022-11-20T16:11:46.868Z,35.78
2022-11-20T16:14:32.765Z,32.15
2022-11-20T16:17:02.515Z,53.33
2022-11-20T16:19:29.771Z,37.78
2022-11-20T16:22:02.655Z,23.02
2022-11-20T16:24:30.472Z,34.92
2022-11-20T16:26:59.923Z,38.53
2022-11-20T16:29:27.046Z,36.50
2022-11-20T16:31:54.378Z,32.10
2022-11-20T16:34:21.473Z,35.75
2022-11-20T16:36:49.381Z,38.35
2022-11-20T16:39:21.915Z,36.78
2022-11-20T16:41:50.510Z,39.33
2022-11-20T16:44:17.686Z,39.15
2022-11-20T16:46:44.987Z,44.53
2022-11-20T16:49:13.694Z,45.45
2022-11-20T16:51:41.289Z,44.35
2022-11-20T16:54:09.760Z,41.53
2022-11-20T16:56:37.183Z,36.65
2022-11-20T16:59:04.466Z,39.50
2022-11-20T17:01:32.213Z,36.85
2022-11-20T17:04:00.713Z,41.08
2022-11-20T17:06:29.079Z,41.13
2022-11-20T17:08:57.059Z,34.90
2022-11-20T17:11:24.169Z,34.80
2022-11-20T17:13:51.659Z,38.88
2022-11-20T17:16:20.239Z,43.85
2022-11-20T17:18:47.397Z,26.05
2022-11-20T17:21:14.731Z,33.80
2022-11-20T17:23:43.451Z,35.40
2022-11-20T17:26:14.226Z,36.30
2022-11-20T17:28:41.643Z,30.33
2022-11-20T17:31:10.612Z,37.45
2022-11-20T17:33:38.416Z,38.60
2022-11-20T17:36:06.513Z,41.05
2022-11-20T17:38:33.887Z,35.72
2022-11-20T17:41:04.117Z,35.05
2022-11-20T17:43:35.490Z,38.63
2022-11-20T17:46:05.829Z,37.30
2022-11-20T17:48:33.265Z,38.33
2022-11-20T17:51:01.582Z,33.30
2022-11-20T17:53:29.480Z,40.38
2022-11-20T17:56:18.515Z,39.15
2022-11-20T17:58:45.716Z,37.40
2022-11-20T18:01:12.887Z,38.97
2022-11-20T18:03:40.176Z,34.08
2022-11-20T18:06:11.639Z,42.72
2022-11-20T18:08:38.980Z,40.95
2022-11-20T18:11:13.333Z,41.58
2022-11-20T18:13:59.686Z,38.45
2022-11-20T18:16:27.678Z,42.72
2022-11-20T18:18:55.843Z,43.58
2022-11-20T18:21:29.313Z,36.63
2022-11-20T18:23:57.063Z,40.13
2022-11-20T18:26:25.303Z,37.35
2022-11-20T18:28:52.454Z,36.63
2022-11-20T18:31:19.665Z,42.45
2022-11-20T18:33:47.601Z,42.83
2022-11-20T18:36:22.489Z,39.80
2022-11-20T18:38:50.381Z,42.97
2022-11-20T18:41:42.047Z,42.22
2022-11-20T18:44:32.427Z,43.08
2022-11-20T18:46:59.641Z,40.97
2022-11-20T18:49:27.224Z,43.33
2022-11-20T18:51:54.741Z,42.70
2022-11-20T18:54:22.184Z,45.70
2022-11-20T18:56:49.682Z,39.28
2022-11-20T18:59:17.414Z,44.58
2022-11-20T19:01:45.398Z,46.05
2022-11-20T19:04:13.653Z,48.10
2022-11-20T19:06:41.541Z,46.70
2022-11-20T19:09:09.883Z,38.28
2022-11-20T19:11:37.539Z,46.35
2022-11-20T19:14:05.013Z,38.00
2022-11-20T19:16:32.148Z,39.35
2022-11-20T19:19:03.564Z,47.50
2022-11-20T19:21:31.069Z,49.28
2022-11-20T19:24:00.322Z,41.75
2022-11-20T19:26:27.735Z,38.88
2022-11-20T19:28:55.077Z,34.88
2022-11-20T19:31:24.830Z,35.30
2022-11-20T19:34:03.203Z,34.90
2022-11-20T19:36:34.525Z,37.45
2022-11-20T19:39:03.019Z,37.55
2022-11-20T19:41:32.227Z,43.08
2022-11-20T19:44:06.423Z,40.60
2022-11-20T19:46:34.689Z,41.90
2022-11-20T19:49:02.182Z,42.95
2022-11-20T19:51:30.551Z,43.05
2022-11-20T19:53:58.988Z,39.03
2022-11-20T19:56:27.033Z,43.47
2022-11-20T19:58:54.782Z,40.10
2022-11-20T20:01:23.886Z,41.15
2022-11-20T20:03:51.584Z,42.95
2022-11-20T20:06:20.471Z,43.20
2022-11-20T20:08:49.238Z,33.80
2022-11-20T20:11:18.385Z,43.20
2022-11-20T20:13:46.014Z,41.28
2022-11-20T20:16:14.391Z,45.13
2022-11-20T20:18:41.753Z,42.83
2022-11-20T20:21:10.836Z,39.03
2022-11-20T20:23:38.203Z,39.50
2022-11-20T20:26:07.277Z,39.85
2022-11-20T20:28:38.641Z,40.85
2022-11-20T20:31:09.018Z,38.47
2022-11-20T20:33:39.695Z,43.10
2022-11-20T20:38:34.404Z,33.35
2022-11-20T20:41:02.194Z,45.63
2022-11-20T20:43:29.946Z,39.75
2022-11-20T20:45:57.053Z,42.55
2022-11-20T20:48:25.109Z,43.03
2022-11-20T20:51:03.075Z,47.72
2022-11-20T20:53:31.306Z,42.13
2022-11-20T20:55:59.209Z,45.10
2022-11-20T20:58:27.054Z,43.70
2022-11-20T21:00:54.313Z,45.25
2022-11-20T21:03:21.682Z,42.42
2022-11-20T21:05:55.962Z,56.55
2022-11-20T21:08:24.219Z,43.05
2022-11-20T21:11:03.978Z,38.78
2022-11-20T21:13:31.533Z,38.33
2022-11-20T21:15:59.008Z,42.83
2022-11-20T21:18:26.672Z,45.22
2022-11-20T21:21:12.823Z,50.55
2022-11-20T21:23:41.769Z,71.85
2022-11-20T21:26:09.587Z,60.45
2022-11-20T21:28:37.716Z,77.93
2022-11-20T21:31:07.856Z,80.13
2022-11-20T21:33:39.233Z,95.38
2022-11-20T21:36:07.193Z,45.72
2022-11-20T21:38:35.319Z,46.70
2022-11-20T21:41:03.112Z,44.50
2022-11-20T21:43:30.450Z,41.13
2022-11-20T21:46:07.855Z,43.97
2022-11-20T21:48:36.349Z,45.63
2022-11-20T21:51:07.065Z,47.08
2022-11-20T21:53:34.846Z,51.55
2022-11-20T21:56:04.135Z,43.45
2022-11-20T21:58:31.969Z,49.17
2022-11-20T22:00:59.305Z,45.80
2022-11-20T22:03:26.551Z,38.78
2022-11-20T22:05:57.506Z,49.53
2022-11-20T22:08:25.504Z,47.95
2022-11-20T22:11:00.134Z,49.42
2022-11-20T22:13:46.683Z,42.70
2022-11-20T22:16:14.741Z,42.88
2022-11-20T22:18:49.162Z,42.80
2022-11-20T22:21:17.333Z,47.95
2022-11-20T22:23:44.438Z,41.95
2022-11-20T22:26:12.690Z,48.28
2022-11-20T22:28:40.504Z,46.20
2022-11-20T22:31:08.950Z,48.47
2022-11-20T22:33:37.048Z,46.58
2022-11-20T22:36:05.670Z,46.33
2022-11-20T22:38:38.862Z,47.78
2022-11-20T22:41:13.318Z,49.65
2022-11-20T22:43:41.041Z,46.50
2022-11-20T22:46:13.024Z,46.80
2022-11-20T22:48:43.326Z,49.03
2022-11-20T22:51:11.643Z,45.35
2022-11-20T22:53:39.169Z,48.67
2022-11-20T22:56:06.816Z,48.45
2022-11-20T22:58:35.094Z,49.90
2022-11-20T23:01:18.849Z,48.25
2022-11-20T23:03:49.792Z,52.95
2022-11-20T23:06:17.600Z,49.72
2022-11-20T23:08:45.269Z,47.08
2022-11-20T23:11:16.733Z,63.40
2022-11-20T23:13:44.388Z,44.47
2022-11-20T23:16:19.835Z,48.33
2022-11-20T23:18:47.992Z,49.65
2022-11-20T23:21:15.103Z,46.13
2022-11-20T23:23:42.659Z,48.90
2022-11-20T23:26:11.422Z,51.75
2022-11-20T23:28:39.303Z,46.10
2022-11-20T23:31:06.884Z,48.45
2022-11-20T23:33:37.868Z,40.60
2022-11-20T23:36:05.263Z,44.08
2022-11-20T23:38:32.475Z,44.00
2022-11-20T23:40:59.878Z,42.05
2022-11-20T23:43:27.177Z,41.17
2022-11-20T23:45:55.729Z,43.30
2022-11-20T23:48:23.972Z,46.97
2022-11-20T23:50:51.214Z,43.70
2022-11-20T23:53:18.898Z,39.92
2022-11-20T23:55:46.878Z,41.60
2022-11-20T23:58:14.711Z,43.40
